sensor_id;sensor_type;location;lat;lon;timestamp;P1;durP1;ratioP1;P2;durP2;ratioP2
47617;SDS011;33336;36.728;-4.414;2022-07-29T00:00:30;11.75;;;3.10;;
47617;SDS011;33336;36.728;-4.414;2022-07-29T00:05:37;8.25;;;3.67;;
47617;SDS011;33336;36.728;-4.414;2022-07-29T00:10:42;12.32;;;3.38;;
47617;SDS011;33336;36.728;-4.414;2022-07-29T00:15:46;11.38;;;3.45;;
47617;SDS011;33336;36.728;-4.414;2022-07-29T00:20:48;9.90;;;2.95;;
47617;SDS011;33336;36.728;-4.414;2022-07-29T00:25:54;9.20;;;2.55;;
47617;SDS011;33336;36.728;-4.414;2022-07-29T00:30:56;7.97;;;2.53;;
47617;SDS011;33336;36.728;-4.414;2022-07-29T00:36:00;11.35;;;3.10;;
47617;SDS011;33336;36.728;-4.414;2022-07-29T00:41:05;8.52;;;2.88;;
47617;SDS011;33336;36.728;-4.414;2022-07-29T00:46:08;7.43;;;3.30;;
47617;SDS011;33336;36.728;-4.414;2022-07-29T00:51:11;8.57;;;2.42;;
47617;SDS011;33336;36.728;-4.414;2022-07-29T00:56:17;7.78;;;2.40;;
47617;SDS011;33336;36.728;-4.414;2022-07-29T01:01:20;8.77;;;2.97;;
47617;SDS011;33336;36.728;-4.414;2022-07-29T01:06:24;11.27;;;2.80;;
47617;SDS011;33336;36.728;-4.414;2022-07-29T01:11:28;13.30;;;3.90;;
47617;SDS011;33336;36.728;-4.414;2022-07-29T01:16:41;14.02;;;4.30;;
47617;SDS011;33336;36.728;-4.414;2022-07-29T01:21:50;13.73;;;3.42;;
47617;SDS011;33336;36.728;-4.414;2022-07-29T01:26:58;13.30;;;3.63;;
47617;SDS011;33336;36.728;-4.414;2022-07-29T01:32:14;14.50;;;3.55;;
47617;SDS011;33336;36.728;-4.414;2022-07-29T01:37:22;12.27;;;3.50;;
47617;SDS011;33336;36.728;-4.414;2022-07-29T01:42:30;11.98;;;3.00;;
47617;SDS011;33336;36.728;-4.414;2022-07-29T01:47:44;10.05;;;2.80;;
47617;SDS011;33336;36.728;-4.414;2022-07-29T01:52:53;10.90;;;3.28;;
47617;SDS011;33336;36.728;-4.414;2022-07-29T01:57:59;13.48;;;3.78;;
47617;SDS011;33336;36.728;-4.414;2022-07-29T02:03:07;11.77;;;3.15;;
47617;SDS011;33336;36.728;-4.414;2022-07-29T02:08:14;13.25;;;3.22;;
47617;SDS011;33336;36.728;-4.414;2022-07-29T02:13:20;11.60;;;2.83;;
47617;SDS011;33336;36.728;-4.414;2022-07-29T02:18:28;10.20;;;2.97;;
47617;SDS011;33336;36.728;-4.414;2022-07-29T02:23:33;15.30;;;3.97;;
47617;SDS011;33336;36.728;-4.414;2022-07-29T02:28:38;14.38;;;4.18;;
47617;SDS011;33336;36.728;-4.414;2022-07-29T02:33:44;9.88;;;3.47;;
47617;SDS011;33336;36.728;-4.414;2022-07-29T02:38:49;14.88;;;4.28;;
47617;SDS011;33336;36.728;-4.414;2022-07-29T02:43:53;12.68;;;3.95;;
47617;SDS011;33336;36.728;-4.414;2022-07-29T02:49:04;17.30;;;3.35;;
47617;SDS011;33336;36.728;-4.414;2022-07-29T02:54:14;9.70;;;3.17;;
47617;SDS011;33336;36.728;-4.414;2022-07-29T02:59:24;12.30;;;3.28;;
47617;SDS011;33336;36.728;-4.414;2022-07-29T03:04:31;11.87;;;3.77;;
47617;SDS011;33336;36.728;-4.414;2022-07-29T03:09:37;11.13;;;3.08;;
47617;SDS011;33336;36.728;-4.414;2022-07-29T03:14:41;7.32;;;3.03;;
47617;SDS011;33336;36.728;-4.414;2022-07-29T03:19:47;13.20;;;3.63;;
47617;SDS011;33336;36.728;-4.414;2022-07-29T03:24:50;16.42;;;3.80;;
47617;SDS011;33336;36.728;-4.414;2022-07-29T03:29:55;14.70;;;4.63;;
47617;SDS011;33336;36.728;-4.414;2022-07-29T03:34:59;13.93;;;3.15;;
47617;SDS011;33336;36.728;-4.414;2022-07-29T03:40:05;12.85;;;3.97;;
47617;SDS011;33336;36.728;-4.414;2022-07-29T03:45:12;14.23;;;4.03;;
47617;SDS011;33336;36.728;-4.414;2022-07-29T03:50:20;13.77;;;4.03;;
47617;SDS011;33336;36.728;-4.414;2022-07-29T03:55:23;8.77;;;4.32;;
47617;SDS011;33336;36.728;-4.414;2022-07-29T04:00:28;11.75;;;4.80;;
47617;SDS011;33336;36.728;-4.414;2022-07-29T04:05:33;9.50;;;4.13;;
47617;SDS011;33336;36.728;-4.414;2022-07-29T04:10:37;9.32;;;5.47;;
47617;SDS011;33336;36.728;-4.414;2022-07-29T04:15:40;12.73;;;4.38;;
47617;SDS011;33336;36.728;-4.414;2022-07-29T04:20:45;13.88;;;4.63;;
47617;SDS011;33336;36.728;-4.414;2022-07-29T04:25:47;12.13;;;4.45;;
47617;SDS011;33336;36.728;-4.414;2022-07-29T04:30:50;15.15;;;4.15;;
47617;SDS011;33336;36.728;-4.414;2022-07-29T04:35:54;12.90;;;3.95;;
47617;SDS011;33336;36.728;-4.414;2022-07-29T04:40:57;11.82;;;3.78;;
47617;SDS011;33336;36.728;-4.414;2022-07-29T04:46:00;11.40;;;3.30;;
47617;SDS011;33336;36.728;-4.414;2022-07-29T04:51:05;9.93;;;4.28;;
47617;SDS011;33336;36.728;-4.414;2022-07-29T04:56:07;9.55;;;3.50;;
47617;SDS011;33336;36.728;-4.414;2022-07-29T05:01:10;11.68;;;4.05;;
47617;SDS011;33336;36.728;-4.414;2022-07-29T05:06:15;9.48;;;3.45;;
47617;SDS011;33336;36.728;-4.414;2022-07-29T05:11:18;16.30;;;3.97;;
47617;SDS011;33336;36.728;-4.414;2022-07-29T05:16:21;10.30;;;3.67;;
47617;SDS011;33336;36.728;-4.414;2022-07-29T05:21:26;14.25;;;4.20;;
47617;SDS011;33336;36.728;-4.414;2022-07-29T05:26:28;12.45;;;4.28;;
47617;SDS011;33336;36.728;-4.414;2022-07-29T05:31:32;10.90;;;3.88;;
47617;SDS011;33336;36.728;-4.414;2022-07-29T05:36:36;15.30;;;4.70;;
47617;SDS011;33336;36.728;-4.414;2022-07-29T05:41:40;18.55;;;5.47;;
47617;SDS011;33336;36.728;-4.414;2022-07-29T05:46:43;12.75;;;4.13;;
47617;SDS011;33336;36.728;-4.414;2022-07-29T05:51:48;19.13;;;4.88;;
47617;SDS011;33336;36.728;-4.414;2022-07-29T05:56:51;11.68;;;4.30;;
47617;SDS011;33336;36.728;-4.414;2022-07-29T06:01:54;17.65;;;5.57;;
47617;SDS011;33336;36.728;-4.414;2022-07-29T06:06:59;17.58;;;4.65;;
47617;SDS011;33336;36.728;-4.414;2022-07-29T06:12:02;11.68;;;3.95;;
47617;SDS011;33336;36.728;-4.414;2022-07-29T06:17:06;11.85;;;3.35;;
47617;SDS011;33336;36.728;-4.414;2022-07-29T06:22:11;19.02;;;3.55;;
47617;SDS011;33336;36.728;-4.414;2022-07-29T06:27:13;11.30;;;3.42;;
47617;SDS011;33336;36.728;-4.414;2022-07-29T06:32:17;14.75;;;3.67;;
47617;SDS011;33336;36.728;-4.414;2022-07-29T06:37:22;105.75;;;9.85;;
47617;SDS011;33336;36.728;-4.414;2022-07-29T06:42:25;51.40;;;5.40;;
47617;SDS011;33336;36.728;-4.414;2022-07-29T06:47:28;22.75;;;4.40;;
47617;SDS011;33336;36.728;-4.414;2022-07-29T06:52:33;14.60;;;3.53;;
47617;SDS011;33336;36.728;-4.414;2022-07-29T06:57:35;17.50;;;3.17;;
47617;SDS011;33336;36.728;-4.414;2022-07-29T07:02:38;16.52;;;3.13;;
47617;SDS011;33336;36.728;-4.414;2022-07-29T07:07:43;10.82;;;3.10;;
47617;SDS011;33336;36.728;-4.414;2022-07-29T07:12:47;13.07;;;3.55;;
47617;SDS011;33336;36.728;-4.414;2022-07-29T07:17:50;10.32;;;3.00;;
47617;SDS011;33336;36.728;-4.414;2022-07-29T07:22:56;19.85;;;3.50;;
47617;SDS011;33336;36.728;-4.414;2022-07-29T07:27:58;12.13;;;3.35;;
47617;SDS011;33336;36.728;-4.414;2022-07-29T07:33:03;15.40;;;3.60;;
47617;SDS011;33336;36.728;-4.414;2022-07-29T07:38:09;10.65;;;3.22;;
47617;SDS011;33336;36.728;-4.414;2022-07-29T07:43:12;8.93;;;3.33;;
47617;SDS011;33336;36.728;-4.414;2022-07-29T07:48:18;10.03;;;2.90;;
47617;SDS011;33336;36.728;-4.414;2022-07-29T07:53:23;7.03;;;2.75;;
47617;SDS011;33336;36.728;-4.414;2022-07-29T07:58:26;10.07;;;3.47;;
47617;SDS011;33336;36.728;-4.414;2022-07-29T08:03:29;10.13;;;2.50;;
47617;SDS011;33336;36.728;-4.414;2022-07-29T08:08:33;14.15;;;3.90;;
47617;SDS011;33336;36.728;-4.414;2022-07-29T08:13:37;22.95;;;4.68;;
47617;SDS011;33336;36.728;-4.414;2022-07-29T08:18:41;24.23;;;4.97;;
47617;SDS011;33336;36.728;-4.414;2022-07-29T08:23:46;21.65;;;4.40;;
47617;SDS011;33336;36.728;-4.414;2022-07-29T08:28:51;17.15;;;4.45;;
47617;SDS011;33336;36.728;-4.414;2022-07-29T08:33:54;28.80;;;4.78;;
47617;SDS011;33336;36.728;-4.414;2022-07-29T08:39:02;19.48;;;4.32;;
47617;SDS011;33336;36.728;-4.414;2022-07-29T08:44:05;14.27;;;4.88;;
47617;SDS011;33336;36.728;-4.414;2022-07-29T08:49:08;14.35;;;3.78;;
47617;SDS011;33336;36.728;-4.414;2022-07-29T08:54:16;10.85;;;3.28;;
47617;SDS011;33336;36.728;-4.414;2022-07-29T08:59:20;12.70;;;3.17;;
47617;SDS011;33336;36.728;-4.414;2022-07-29T09:04:26;16.95;;;3.42;;
47617;SDS011;33336;36.728;-4.414;2022-07-29T09:09:34;12.60;;;3.13;;
47617;SDS011;33336;36.728;-4.414;2022-07-29T09:14:38;23.30;;;3.73;;
47617;SDS011;33336;36.728;-4.414;2022-07-29T09:19:41;14.02;;;3.70;;
47617;SDS011;33336;36.728;-4.414;2022-07-29T09:24:46;11.90;;;4.03;;
47617;SDS011;33336;36.728;-4.414;2022-07-29T09:29:55;9.10;;;3.13;;
47617;SDS011;33336;36.728;-4.414;2022-07-29T09:35:19;16.42;;;4.68;;
47617;SDS011;33336;36.728;-4.414;2022-07-29T09:40:25;18.73;;;5.35;;
47617;SDS011;33336;36.728;-4.414;2022-07-29T09:45:31;8.38;;;3.45;;
47617;SDS011;33336;36.728;-4.414;2022-07-29T09:50:36;13.98;;;3.80;;
47617;SDS011;33336;36.728;-4.414;2022-07-29T09:55:51;9.10;;;2.88;;
47617;SDS011;33336;36.728;-4.414;2022-07-29T10:00:54;9.68;;;3.50;;
47617;SDS011;33336;36.728;-4.414;2022-07-29T10:06:05;7.53;;;2.50;;
47617;SDS011;33336;36.728;-4.414;2022-07-29T10:11:11;13.40;;;2.97;;
47617;SDS011;33336;36.728;-4.414;2022-07-29T10:21:18;7.78;;;3.15;;
47617;SDS011;33336;36.728;-4.414;2022-07-29T10:26:24;7.78;;;3.20;;
47617;SDS011;33336;36.728;-4.414;2022-07-29T10:31:28;11.83;;;3.60;;
47617;SDS011;33336;36.728;-4.414;2022-07-29T10:36:42;8.88;;;3.33;;
47617;SDS011;33336;36.728;-4.414;2022-07-29T10:42:01;9.50;;;3.63;;
47617;SDS011;33336;36.728;-4.414;2022-07-29T10:47:21;9.65;;;3.55;;
47617;SDS011;33336;36.728;-4.414;2022-07-29T10:52:24;12.18;;;3.67;;
47617;SDS011;33336;36.728;-4.414;2022-07-29T11:25:38;5.75;;;2.72;;
47617;SDS011;33336;36.728;-4.414;2022-07-29T11:30:49;9.38;;;3.83;;
47617;SDS011;33336;36.728;-4.414;2022-07-29T11:36:08;11.90;;;3.10;;
47617;SDS011;33336;36.728;-4.414;2022-07-29T11:41:22;17.30;;;4.82;;
47617;SDS011;33336;36.728;-4.414;2022-07-29T11:46:44;14.10;;;3.30;;
47617;SDS011;33336;36.728;-4.414;2022-07-29T11:51:50;11.27;;;2.95;;
47617;SDS011;33336;36.728;-4.414;2022-07-29T11:56:54;11.73;;;3.03;;
47617;SDS011;33336;36.728;-4.414;2022-07-29T12:02:00;16.48;;;3.70;;
47617;SDS011;33336;36.728;-4.414;2022-07-29T12:07:03;6.90;;;2.92;;
47617;SDS011;33336;36.728;-4.414;2022-07-29T12:12:06;12.65;;;2.83;;
47617;SDS011;33336;36.728;-4.414;2022-07-29T12:17:24;13.10;;;2.25;;
47617;SDS011;33336;36.728;-4.414;2022-07-29T12:22:28;15.32;;;3.45;;
47617;SDS011;33336;36.728;-4.414;2022-07-29T12:27:33;13.88;;;2.85;;
47617;SDS011;33336;36.728;-4.414;2022-07-29T12:32:38;8.00;;;2.70;;
47617;SDS011;33336;36.728;-4.414;2022-07-29T12:37:43;9.15;;;2.90;;
47617;SDS011;33336;36.728;-4.414;2022-07-29T12:43:07;15.27;;;2.50;;
47617;SDS011;33336;36.728;-4.414;2022-07-29T12:48:13;10.98;;;2.22;;
47617;SDS011;33336;36.728;-4.414;2022-07-29T12:53:16;9.77;;;2.80;;
47617;SDS011;33336;36.728;-4.414;2022-07-29T13:04:27;10.40;;;3.70;;
47617;SDS011;33336;36.728;-4.414;2022-07-29T13:15:28;7.63;;;2.60;;
47617;SDS011;33336;36.728;-4.414;2022-07-29T13:20:34;9.18;;;2.95;;
47617;SDS011;33336;36.728;-4.414;2022-07-29T13:25:36;6.57;;;2.28;;
47617;SDS011;33336;36.728;-4.414;2022-07-29T13:30:41;10.80;;;3.85;;
47617;SDS011;33336;36.728;-4.414;2022-07-29T13:35:46;9.20;;;3.00;;
47617;SDS011;33336;36.728;-4.414;2022-07-29T13:40:49;11.75;;;3.10;;
47617;SDS011;33336;36.728;-4.414;2022-07-29T13:45:52;6.50;;;2.45;;
47617;SDS011;33336;36.728;-4.414;2022-07-29T13:50:57;9.65;;;2.30;;
47617;SDS011;33336;36.728;-4.414;2022-07-29T13:56:00;10.53;;;2.77;;
47617;SDS011;33336;36.728;-4.414;2022-07-29T14:01:02;8.50;;;2.55;;
47617;SDS011;33336;36.728;-4.414;2022-07-29T14:06:08;8.65;;;2.80;;
47617;SDS011;33336;36.728;-4.414;2022-07-29T14:11:10;9.57;;;2.60;;
47617;SDS011;33336;36.728;-4.414;2022-07-29T14:16:14;7.70;;;2.63;;
47617;SDS011;33336;36.728;-4.414;2022-07-29T14:21:18;8.02;;;2.70;;
47617;SDS011;33336;36.728;-4.414;2022-07-29T14:26:22;8.65;;;2.70;;
47617;SDS011;33336;36.728;-4.414;2022-07-29T14:31:25;6.97;;;2.85;;
47617;SDS011;33336;36.728;-4.414;2022-07-29T14:36:31;9.02;;;2.53;;
47617;SDS011;33336;36.728;-4.414;2022-07-29T14:41:35;6.53;;;2.70;;
47617;SDS011;33336;36.728;-4.414;2022-07-29T14:46:39;11.88;;;2.97;;
47617;SDS011;33336;36.728;-4.414;2022-07-29T14:51:48;8.90;;;2.25;;
47617;SDS011;33336;36.728;-4.414;2022-07-29T14:56:52;12.73;;;2.37;;
47617;SDS011;33336;36.728;-4.414;2022-07-29T15:01:57;10.30;;;2.42;;
47617;SDS011;33336;36.728;-4.414;2022-07-29T15:07:03;10.88;;;2.40;;
47617;SDS011;33336;36.728;-4.414;2022-07-29T15:12:06;8.65;;;2.67;;
47617;SDS011;33336;36.728;-4.414;2022-07-29T15:17:11;15.00;;;2.67;;
47617;SDS011;33336;36.728;-4.414;2022-07-29T15:22:15;9.07;;;2.97;;
47617;SDS011;33336;36.728;-4.414;2022-07-29T15:27:19;6.57;;;2.00;;
47617;SDS011;33336;36.728;-4.414;2022-07-29T15:32:22;4.68;;;1.88;;
47617;SDS011;33336;36.728;-4.414;2022-07-29T15:37:26;5.93;;;1.98;;
47617;SDS011;33336;36.728;-4.414;2022-07-29T15:42:30;7.95;;;2.33;;
47617;SDS011;33336;36.728;-4.414;2022-07-29T15:47:34;9.18;;;2.28;;
47617;SDS011;33336;36.728;-4.414;2022-07-29T15:52:38;8.77;;;2.23;;
47617;SDS011;33336;36.728;-4.414;2022-07-29T15:57:42;13.63;;;2.58;;
47617;SDS011;33336;36.728;-4.414;2022-07-29T16:02:45;4.63;;;1.60;;
47617;SDS011;33336;36.728;-4.414;2022-07-29T16:07:49;12.70;;;2.80;;
47617;SDS011;33336;36.728;-4.414;2022-07-29T16:12:52;7.22;;;2.03;;
47617;SDS011;33336;36.728;-4.414;2022-07-29T16:17:56;7.50;;;2.03;;
47617;SDS011;33336;36.728;-4.414;2022-07-29T16:23:00;4.07;;;1.58;;
47617;SDS011;33336;36.728;-4.414;2022-07-29T16:28:04;7.03;;;2.33;;
47617;SDS011;33336;36.728;-4.414;2022-07-29T16:33:08;6.07;;;1.73;;
47617;SDS011;33336;36.728;-4.414;2022-07-29T16:38:12;6.97;;;1.85;;
47617;SDS011;33336;36.728;-4.414;2022-07-29T16:43:15;4.68;;;1.67;;
47617;SDS011;33336;36.728;-4.414;2022-07-29T16:48:19;7.70;;;2.60;;
47617;SDS011;33336;36.728;-4.414;2022-07-29T16:53:23;10.95;;;2.67;;
47617;SDS011;33336;36.728;-4.414;2022-07-29T16:58:26;6.22;;;2.15;;
47617;SDS011;33336;36.728;-4.414;2022-07-29T17:03:29;5.90;;;2.08;;
47617;SDS011;33336;36.728;-4.414;2022-07-29T17:08:34;6.43;;;2.40;;
47617;SDS011;33336;36.728;-4.414;2022-07-29T17:13:37;8.48;;;2.20;;
47617;SDS011;33336;36.728;-4.414;2022-07-29T17:18:41;5.70;;;2.10;;
47617;SDS011;33336;36.728;-4.414;2022-07-29T17:23:45;6.30;;;2.87;;
47617;SDS011;33336;36.728;-4.414;2022-07-29T17:28:49;11.45;;;2.72;;
47617;SDS011;33336;36.728;-4.414;2022-07-29T17:33:52;11.05;;;2.83;;
47617;SDS011;33336;36.728;-4.414;2022-07-29T17:38:57;8.45;;;2.20;;
47617;SDS011;33336;36.728;-4.414;2022-07-29T17:44:02;5.38;;;2.13;;
47617;SDS011;33336;36.728;-4.414;2022-07-29T17:49:06;11.43;;;2.53;;
47617;SDS011;33336;36.728;-4.414;2022-07-29T17:54:10;6.47;;;1.80;;
47617;SDS011;33336;36.728;-4.414;2022-07-29T17:59:14;7.50;;;2.43;;
47617;SDS011;33336;36.728;-4.414;2022-07-29T18:04:17;8.25;;;2.63;;
47617;SDS011;33336;36.728;-4.414;2022-07-29T18:09:24;6.68;;;1.90;;
47617;SDS011;33336;36.728;-4.414;2022-07-29T18:14:27;9.20;;;2.30;;
47617;SDS011;33336;36.728;-4.414;2022-07-29T18:19:30;6.75;;;2.58;;
47617;SDS011;33336;36.728;-4.414;2022-07-29T18:24:34;8.63;;;2.50;;
47617;SDS011;33336;36.728;-4.414;2022-07-29T18:29:41;9.13;;;2.40;;
47617;SDS011;33336;36.728;-4.414;2022-07-29T18:34:44;9.57;;;3.10;;
47617;SDS011;33336;36.728;-4.414;2022-07-29T18:39:48;8.95;;;3.25;;
47617;SDS011;33336;36.728;-4.414;2022-07-29T18:44:51;8.75;;;2.38;;
47617;SDS011;33336;36.728;-4.414;2022-07-29T18:49:55;8.10;;;2.10;;
47617;SDS011;33336;36.728;-4.414;2022-07-29T18:55:00;8.05;;;2.33;;
47617;SDS011;33336;36.728;-4.414;2022-07-29T19:00:06;7.03;;;2.50;;
47617;SDS011;33336;36.728;-4.414;2022-07-29T19:05:13;10.00;;;2.72;;
47617;SDS011;33336;36.728;-4.414;2022-07-29T19:10:20;7.78;;;2.70;;
47617;SDS011;33336;36.728;-4.414;2022-07-29T19:15:23;10.63;;;2.95;;
47617;SDS011;33336;36.728;-4.414;2022-07-29T19:20:27;9.18;;;2.88;;
47617;SDS011;33336;36.728;-4.414;2022-07-29T19:25:33;10.07;;;3.88;;
47617;SDS011;33336;36.728;-4.414;2022-07-29T19:30:37;7.00;;;3.20;;
47617;SDS011;33336;36.728;-4.414;2022-07-29T19:35:40;7.10;;;2.60;;
47617;SDS011;33336;36.728;-4.414;2022-07-29T19:40:45;8.05;;;3.50;;
47617;SDS011;33336;36.728;-4.414;2022-07-29T19:45:47;11.35;;;3.10;;
47617;SDS011;33336;36.728;-4.414;2022-07-29T19:50:51;7.40;;;2.50;;
47617;SDS011;33336;36.728;-4.414;2022-07-29T19:55:55;10.43;;;3.45;;
47617;SDS011;33336;36.728;-4.414;2022-07-29T20:00:59;8.90;;;3.00;;
47617;SDS011;33336;36.728;-4.414;2022-07-29T20:06:02;13.55;;;3.28;;
47617;SDS011;33336;36.728;-4.414;2022-07-29T20:11:06;8.00;;;2.78;;
47617;SDS011;33336;36.728;-4.414;2022-07-29T20:16:09;9.25;;;3.30;;
47617;SDS011;33336;36.728;-4.414;2022-07-29T20:21:13;11.77;;;4.15;;
47617;SDS011;33336;36.728;-4.414;2022-07-29T20:26:17;11.50;;;4.07;;
47617;SDS011;33336;36.728;-4.414;2022-07-29T20:31:21;7.72;;;3.90;;
47617;SDS011;33336;36.728;-4.414;2022-07-29T20:36:24;11.93;;;4.47;;
47617;SDS011;33336;36.728;-4.414;2022-07-29T20:41:29;13.45;;;4.75;;
47617;SDS011;33336;36.728;-4.414;2022-07-29T20:46:33;12.60;;;4.43;;
47617;SDS011;33336;36.728;-4.414;2022-07-29T20:51:36;9.35;;;4.63;;
47617;SDS011;33336;36.728;-4.414;2022-07-29T20:56:41;13.63;;;4.82;;
47617;SDS011;33336;36.728;-4.414;2022-07-29T21:01:44;18.67;;;5.30;;
47617;SDS011;33336;36.728;-4.414;2022-07-29T21:06:47;12.25;;;5.00;;
47617;SDS011;33336;36.728;-4.414;2022-07-29T21:11:51;14.07;;;5.18;;
47617;SDS011;33336;36.728;-4.414;2022-07-29T21:16:54;15.05;;;4.75;;
47617;SDS011;33336;36.728;-4.414;2022-07-29T21:21:58;9.68;;;4.13;;
47617;SDS011;33336;36.728;-4.414;2022-07-29T21:27:02;8.68;;;3.53;;
47617;SDS011;33336;36.728;-4.414;2022-07-29T21:32:23;15.63;;;4.88;;
47617;SDS011;33336;36.728;-4.414;2022-07-29T21:37:26;13.52;;;4.63;;
47617;SDS011;33336;36.728;-4.414;2022-07-29T21:42:30;27.13;;;5.38;;
47617;SDS011;33336;36.728;-4.414;2022-07-29T21:47:33;10.93;;;3.75;;
47617;SDS011;33336;36.728;-4.414;2022-07-29T21:52:36;10.40;;;3.40;;
47617;SDS011;33336;36.728;-4.414;2022-07-29T21:57:40;7.35;;;3.38;;
47617;SDS011;33336;36.728;-4.414;2022-07-29T22:02:43;6.15;;;3.50;;
47617;SDS011;33336;36.728;-4.414;2022-07-29T22:07:46;9.40;;;3.25;;
47617;SDS011;33336;36.728;-4.414;2022-07-29T22:12:52;10.10;;;3.20;;
47617;SDS011;33336;36.728;-4.414;2022-07-29T22:17:56;8.45;;;3.10;;
47617;SDS011;33336;36.728;-4.414;2022-07-29T22:23:00;10.40;;;3.40;;
47617;SDS011;33336;36.728;-4.414;2022-07-29T22:28:04;12.02;;;3.33;;
47617;SDS011;33336;36.728;-4.414;2022-07-29T22:33:08;7.28;;;2.83;;
47617;SDS011;33336;36.728;-4.414;2022-07-29T22:38:11;11.02;;;3.28;;
47617;SDS011;33336;36.728;-4.414;2022-07-29T22:43:15;10.93;;;3.00;;
47617;SDS011;33336;36.728;-4.414;2022-07-29T22:48:18;5.88;;;3.22;;
47617;SDS011;33336;36.728;-4.414;2022-07-29T22:53:22;9.35;;;3.08;;
47617;SDS011;33336;36.728;-4.414;2022-07-29T22:58:26;13.88;;;4.05;;
47617;SDS011;33336;36.728;-4.414;2022-07-29T23:03:29;9.05;;;3.90;;
47617;SDS011;33336;36.728;-4.414;2022-07-29T23:08:32;14.38;;;3.80;;
47617;SDS011;33336;36.728;-4.414;2022-07-29T23:13:37;9.13;;;3.95;;
47617;SDS011;33336;36.728;-4.414;2022-07-29T23:18:40;8.88;;;3.97;;
47617;SDS011;33336;36.728;-4.414;2022-07-29T23:23:44;13.27;;;4.53;;
47617;SDS011;33336;36.728;-4.414;2022-07-29T23:28:49;10.13;;;4.93;;
47617;SDS011;33336;36.728;-4.414;2022-07-29T23:33:53;13.90;;;4.70;;
47617;SDS011;33336;36.728;-4.414;2022-07-29T23:38:56;13.60;;;4.13;;
47617;SDS011;33336;36.728;-4.414;2022-07-29T23:44:00;13.32;;;3.97;;
47617;SDS011;33336;36.728;-4.414;2022-07-29T23:49:03;6.80;;;2.95;;
47617;SDS011;33336;36.728;-4.414;2022-07-29T23:54:07;18.48;;;4.53;;
47617;SDS011;33336;36.728;-4.414;2022-07-29T23:59:11;11.38;;;4.32;;
